createdAt,value
2019-03-11T00:01:02.196Z,4.92
2019-03-11T00:03:31.162Z,4.85
2019-03-11T00:06:00.155Z,4.00
2019-03-11T00:08:29.148Z,5.17
2019-03-11T00:10:58.141Z,4.60
2019-03-11T00:13:27.134Z,5.10
2019-03-11T00:15:56.128Z,5.90
2019-03-11T00:18:25.120Z,7.08
2019-03-11T00:20:55.035Z,6.53
2019-03-11T00:23:24.030Z,7.05
2019-03-11T00:25:53.022Z,6.33
2019-03-11T00:28:22.020Z,7.33
2019-03-11T00:30:51.009Z,6.85
2019-03-11T00:33:20.047Z,7.58
2019-03-11T00:35:48.997Z,7.25
2019-03-11T00:38:18.089Z,7.15
2019-03-11T00:40:46.981Z,7.08
2019-03-11T00:43:15.975Z,7.62
2019-03-11T00:45:44.968Z,7.42
2019-03-11T00:48:17.032Z,7.25
2019-03-11T00:50:46.026Z,8.05
2019-03-11T00:53:15.189Z,7.00
2019-03-11T00:55:44.379Z,8.40
2019-03-11T00:58:13.317Z,6.55
2019-03-11T01:00:42.308Z,5.87
2019-03-11T01:03:11.301Z,5.55
2019-03-11T01:05:40.292Z,6.20
2019-03-11T01:08:09.289Z,5.65
2019-03-11T01:10:38.287Z,6.17
2019-03-11T01:13:07.580Z,6.03
2019-03-11T01:15:36.574Z,6.70
2019-03-11T01:18:05.567Z,7.17
2019-03-11T01:20:34.559Z,7.17
2019-03-11T01:23:03.555Z,6.50
2019-03-11T01:25:32.546Z,5.70
2019-03-11T01:28:01.537Z,6.65
2019-03-11T01:30:30.533Z,5.90
2019-03-11T01:32:59.525Z,5.50
2019-03-11T01:35:28.519Z,5.55
2019-03-11T01:37:57.512Z,5.22
2019-03-11T01:40:26.509Z,5.53
2019-03-11T01:42:55.499Z,4.97
2019-03-11T01:45:24.491Z,4.87
2019-03-11T01:47:53.484Z,5.15
2019-03-11T01:50:22.494Z,5.08
2019-03-11T01:52:51.470Z,5.47
2019-03-11T01:55:20.463Z,5.78
2019-03-11T01:57:49.457Z,5.45
2019-03-11T02:00:19.679Z,5.17
2019-03-11T02:02:48.672Z,5.95
2019-03-11T02:05:17.664Z,6.72
2019-03-11T02:07:46.660Z,6.60
2019-03-11T02:10:16.881Z,7.17
2019-03-11T02:12:46.183Z,6.70
2019-03-11T02:15:16.407Z,6.40
2019-03-11T02:17:45.395Z,6.08
2019-03-11T02:20:18.296Z,6.08
2019-03-11T02:22:48.300Z,5.58
2019-03-11T02:25:16.984Z,5.45
2019-03-11T02:27:45.976Z,5.40
2019-03-11T02:30:18.673Z,5.50
2019-03-11T02:32:49.496Z,5.40
2019-03-11T02:35:31.696Z,5.87
2019-03-11T02:38:00.689Z,5.75
2019-03-11T02:40:29.681Z,5.35
2019-03-11T02:42:58.691Z,5.00
2019-03-11T02:45:27.668Z,4.75
2019-03-11T02:47:56.663Z,5.22
2019-03-11T02:50:25.656Z,3.87
2019-03-11T02:52:54.651Z,3.87
2019-03-11T02:55:23.644Z,4.37
2019-03-11T02:57:52.653Z,3.25
2019-03-11T03:00:21.629Z,3.40
2019-03-11T03:02:54.930Z,3.40
2019-03-11T03:05:25.452Z,3.10
2019-03-11T03:07:54.445Z,3.22
2019-03-11T03:10:23.437Z,3.62
2019-03-11T03:12:52.438Z,3.30
2019-03-11T03:15:21.427Z,3.22
2019-03-11T03:17:50.428Z,3.42
2019-03-11T03:20:19.411Z,3.58
2019-03-11T03:22:48.405Z,3.50
2019-03-11T03:25:32.246Z,3.80
2019-03-11T03:27:47.644Z,3.70
2019-03-11T03:30:18.053Z,3.35
2019-03-11T03:32:46.859Z,4.03
2019-03-11T03:35:16.052Z,3.15
2019-03-11T03:37:45.434Z,2.80
2019-03-11T03:40:17.226Z,2.70
2019-03-11T03:42:46.213Z,3.17
2019-03-11T03:45:34.227Z,2.60
2019-03-11T03:48:03.223Z,2.60
2019-03-11T03:50:39.623Z,3.02
2019-03-11T03:53:08.892Z,3.10
2019-03-11T03:55:37.877Z,2.77
2019-03-11T03:58:06.895Z,3.42
2019-03-11T04:00:35.864Z,3.00
2019-03-11T04:03:04.861Z,3.00
2019-03-11T04:05:33.852Z,3.25
2019-03-11T04:08:02.844Z,3.00
2019-03-11T04:10:32.797Z,2.87
2019-03-11T04:13:02.367Z,3.20
2019-03-11T04:15:31.360Z,3.22
2019-03-11T04:18:00.373Z,3.22
2019-03-11T04:20:29.347Z,3.42
2019-03-11T04:23:00.489Z,3.72
2019-03-11T04:25:30.405Z,3.58
2019-03-11T04:27:59.396Z,3.58
2019-03-11T04:30:28.928Z,3.40
2019-03-11T04:32:59.844Z,3.65
2019-03-11T04:35:28.855Z,3.72
2019-03-11T04:37:57.829Z,4.30
2019-03-11T04:40:26.823Z,5.10
2019-03-11T04:42:55.656Z,5.37
2019-03-11T04:45:24.500Z,4.70
2019-03-11T04:47:53.493Z,4.17
2019-03-11T04:50:22.486Z,4.55
2019-03-11T04:52:51.480Z,4.60
2019-03-11T04:55:20.473Z,4.90
2019-03-11T04:57:54.077Z,5.75
2019-03-11T05:00:26.242Z,5.53
2019-03-11T05:02:55.131Z,5.65
2019-03-11T05:05:25.648Z,4.92
2019-03-11T05:07:54.656Z,5.22
2019-03-11T05:10:24.676Z,4.28
2019-03-11T05:12:53.564Z,4.65
2019-03-11T05:15:22.557Z,4.78
2019-03-11T05:17:51.555Z,4.30
2019-03-11T05:20:20.543Z,4.53
2019-03-11T05:22:49.536Z,4.85
2019-03-11T05:25:18.529Z,4.67
2019-03-11T05:27:47.524Z,5.80
2019-03-11T05:30:18.357Z,5.92
2019-03-11T05:32:47.354Z,6.58
2019-03-11T05:35:16.344Z,6.40
2019-03-11T05:37:45.337Z,5.65
2019-03-11T05:40:19.437Z,5.95
2019-03-11T05:42:48.239Z,5.58
2019-03-11T05:45:18.368Z,5.70
2019-03-11T05:47:47.458Z,6.17
2019-03-11T05:50:18.600Z,5.92
2019-03-11T05:52:49.127Z,5.87
2019-03-11T05:55:18.122Z,5.70
2019-03-11T05:57:47.113Z,6.17
2019-03-11T06:00:21.637Z,6.45
2019-03-11T06:02:50.631Z,6.67
2019-03-11T06:05:19.624Z,6.20
2019-03-11T06:07:48.616Z,5.65
2019-03-11T06:10:21.988Z,6.17
2019-03-11T06:12:50.906Z,5.35
2019-03-11T06:15:19.896Z,5.10
2019-03-11T06:17:49.007Z,5.87
2019-03-11T06:20:22.798Z,5.78
2019-03-11T06:22:51.792Z,5.50
2019-03-11T06:25:20.791Z,6.15
2019-03-11T06:28:00.841Z,7.17
2019-03-11T06:30:29.833Z,6.40
2019-03-11T06:32:58.828Z,6.47
2019-03-11T06:35:27.816Z,5.70
2019-03-11T06:37:56.809Z,6.03
2019-03-11T06:40:25.807Z,6.22
2019-03-11T06:42:54.796Z,6.28
2019-03-11T06:45:24.916Z,5.80
2019-03-11T06:47:53.705Z,7.00
2019-03-11T06:50:22.700Z,6.50
2019-03-11T06:52:51.693Z,6.50
2019-03-11T06:55:20.686Z,6.72
2019-03-11T06:57:49.677Z,6.87
2019-03-11T07:00:19.595Z,6.78
2019-03-11T07:02:48.591Z,6.37
2019-03-11T07:05:20.405Z,6.85
2019-03-11T07:07:48.107Z,6.72
2019-03-11T07:10:17.714Z,6.30
2019-03-11T07:12:46.708Z,6.72
2019-03-11T07:15:16.627Z,6.65
2019-03-11T07:17:49.916Z,6.37
2019-03-11T07:20:19.524Z,6.40
2019-03-11T07:22:48.501Z,5.70
2019-03-11T07:25:17.511Z,7.03
2019-03-11T07:27:46.197Z,7.65
2019-03-11T07:30:19.081Z,7.80
2019-03-11T07:32:49.098Z,7.25
2019-03-11T07:35:21.778Z,5.97
2019-03-11T07:37:53.659Z,6.95
2019-03-11T07:40:29.563Z,6.65
2019-03-11T07:42:53.068Z,5.58
2019-03-11T07:45:22.052Z,5.30
2019-03-11T07:47:57.496Z,6.10
2019-03-11T07:50:26.336Z,6.70
2019-03-11T07:52:57.940Z,6.47
2019-03-11T07:55:28.453Z,6.97
2019-03-11T07:57:59.181Z,7.03
2019-03-11T08:02:59.086Z,5.12
2019-03-11T08:05:28.047Z,6.62
2019-03-11T08:07:57.007Z,6.70
2019-03-11T08:10:26.783Z,5.62
2019-03-11T08:12:56.710Z,6.33
2019-03-11T08:15:25.560Z,5.97
2019-03-11T08:17:54.483Z,6.17
2019-03-11T08:20:23.197Z,5.08
2019-03-11T08:22:51.901Z,5.90
2019-03-11T08:25:20.689Z,5.22
2019-03-11T08:27:49.375Z,5.67
2019-03-11T08:30:22.368Z,4.95
2019-03-11T08:32:51.361Z,4.70
2019-03-11T08:35:20.186Z,5.20
2019-03-11T08:37:49.036Z,4.25
2019-03-11T08:40:20.178Z,4.15
2019-03-11T08:42:49.171Z,4.70
2019-03-11T08:45:26.593Z,5.15
2019-03-11T08:47:55.452Z,5.35
2019-03-11T08:50:24.458Z,4.58
2019-03-11T08:52:55.733Z,4.42
2019-03-11T08:55:24.585Z,4.47
2019-03-11T08:57:53.575Z,7.67
2019-03-11T09:00:25.966Z,6.28
2019-03-11T09:02:55.438Z,6.05
2019-03-11T09:05:24.242Z,6.40
2019-03-11T09:07:53.234Z,6.20
2019-03-11T09:10:22.108Z,4.22
2019-03-11T09:12:50.800Z,5.08
2019-03-11T09:15:21.279Z,5.10
2019-03-11T09:17:50.134Z,6.00
2019-03-11T09:20:19.156Z,4.45
2019-03-11T09:22:48.117Z,4.20
2019-03-11T09:25:22.333Z,9.73
2019-03-11T09:27:51.387Z,7.75
2019-03-11T09:30:23.401Z,4.07
2019-03-11T09:32:54.840Z,4.80
2019-03-11T09:35:25.251Z,3.95
2019-03-11T09:37:55.392Z,6.67
2019-03-11T09:40:24.309Z,4.42
2019-03-11T09:42:53.599Z,4.20
2019-03-11T09:45:24.758Z,6.35
2019-03-11T09:47:53.408Z,5.37
2019-03-11T09:50:22.402Z,10.20
2019-03-11T09:52:51.395Z,5.58
2019-03-11T09:55:22.121Z,5.72
2019-03-11T10:00:25.636Z,3.85
2019-03-11T10:02:54.434Z,3.75
2019-03-11T10:05:24.963Z,4.00
2019-03-11T10:07:54.904Z,5.92
2019-03-11T10:10:26.725Z,4.60
2019-03-11T10:12:55.629Z,3.75
2019-03-11T10:15:24.635Z,4.03
2019-03-11T10:17:53.616Z,3.42
2019-03-11T10:20:22.610Z,3.80
2019-03-11T10:22:51.839Z,8.05
2019-03-11T10:25:20.992Z,5.50
2019-03-11T10:27:51.434Z,8.85
2019-03-11T10:30:24.703Z,7.95
2019-03-11T10:32:54.038Z,7.42
2019-03-11T10:35:32.330Z,5.92
2019-03-11T10:37:56.720Z,4.58
2019-03-11T10:40:28.848Z,4.85
2019-03-11T10:42:58.001Z,7.35
2019-03-11T10:45:31.843Z,7.78
2019-03-11T10:47:57.830Z,7.67
2019-03-11T10:50:27.131Z,8.45
2019-03-11T10:52:57.641Z,8.90
2019-03-11T10:55:27.858Z,8.05
2019-03-11T10:57:57.181Z,6.45
2019-03-11T11:00:28.945Z,5.92
2019-03-11T11:02:57.986Z,3.85
2019-03-11T11:05:27.232Z,5.22
2019-03-11T11:07:56.531Z,3.02
2019-03-11T11:10:28.581Z,2.60
2019-03-11T11:12:58.425Z,2.70
2019-03-11T11:15:32.425Z,2.00
2019-03-11T11:18:01.720Z,3.27
2019-03-11T11:20:31.024Z,2.45
2019-03-11T11:23:00.041Z,8.45
2019-03-11T11:25:30.582Z,13.48
2019-03-11T11:28:01.371Z,13.62
2019-03-11T11:30:32.755Z,7.65
2019-03-11T11:33:03.055Z,7.55
2019-03-11T11:35:33.308Z,8.15
2019-03-11T11:38:11.504Z,9.33
2019-03-11T11:40:38.328Z,4.40
2019-03-11T11:43:07.631Z,4.75
2019-03-11T11:45:40.608Z,4.58
2019-03-11T11:48:09.917Z,2.90
2019-03-11T11:50:39.262Z,8.23
2019-03-11T11:53:11.588Z,4.50
2019-03-11T11:55:40.888Z,3.77
2019-03-11T11:58:10.189Z,5.42
2019-03-11T12:00:41.024Z,5.60
2019-03-11T12:03:10.002Z,4.70
2019-03-11T12:05:39.319Z,4.15
2019-03-11T12:08:10.156Z,3.10
2019-03-11T12:13:07.435Z,2.45
2019-03-11T12:15:36.279Z,2.67
2019-03-11T12:18:05.515Z,2.58
2019-03-11T12:20:36.198Z,2.90
2019-03-11T12:23:05.068Z,3.12
2019-03-11T12:25:34.033Z,3.27
2019-03-11T12:28:03.333Z,2.60
2019-03-11T12:30:33.865Z,2.70
2019-03-11T12:33:02.855Z,2.75
2019-03-11T12:35:32.153Z,2.58
2019-03-11T12:38:01.068Z,2.75
2019-03-11T12:40:30.056Z,2.30
2019-03-11T12:42:58.792Z,2.90
2019-03-11T12:45:28.126Z,3.05
2019-03-11T12:47:57.427Z,3.00
2019-03-11T12:50:35.361Z,3.95
2019-03-11T12:53:04.633Z,3.10
2019-03-11T12:55:33.563Z,2.98
2019-03-11T12:58:04.478Z,2.98
2019-03-11T13:00:34.376Z,2.70
2019-03-11T13:03:03.289Z,2.80
2019-03-11T13:05:32.194Z,2.42
2019-03-11T13:08:01.359Z,3.30
2019-03-11T13:10:34.340Z,3.30
2019-03-11T13:13:11.924Z,2.90
2019-03-11T13:15:40.661Z,4.45
2019-03-11T13:18:32.930Z,4.08
2019-03-11T13:21:04.105Z,4.35
2019-03-11T13:23:33.135Z,4.35
2019-03-11T13:26:02.404Z,3.08
2019-03-11T13:28:36.582Z,2.80
2019-03-11T13:31:05.541Z,3.08
2019-03-11T13:33:35.837Z,3.10
2019-03-11T13:36:06.360Z,3.22
2019-03-11T13:38:35.477Z,2.72
2019-03-11T13:41:04.960Z,2.62
2019-03-11T13:43:33.965Z,2.60
2019-03-11T13:46:03.253Z,3.60
2019-03-11T13:48:36.837Z,2.60
2019-03-11T13:51:06.175Z,3.00
2019-03-11T13:53:37.169Z,3.25
2019-03-11T13:56:07.181Z,2.95
2019-03-11T13:58:36.176Z,3.02
2019-03-11T14:01:08.168Z,3.20
2019-03-11T14:03:37.275Z,3.17
2019-03-11T14:06:06.568Z,3.72
2019-03-11T14:08:35.967Z,4.85
2019-03-11T14:11:04.850Z,3.62
2019-03-11T14:13:33.771Z,3.92
2019-03-11T14:16:05.304Z,4.20
2019-03-11T14:18:34.305Z,4.05
2019-03-11T14:21:06.601Z,4.87
2019-03-11T14:23:37.225Z,6.22
2019-03-11T14:26:06.500Z,8.30
2019-03-11T14:28:37.138Z,9.93
2019-03-11T14:31:08.476Z,13.58
2019-03-11T14:33:37.395Z,13.38
2019-03-11T14:36:06.775Z,13.60
2019-03-11T14:38:35.804Z,14.13
2019-03-11T14:41:10.856Z,12.35
2019-03-11T14:43:38.589Z,11.20
2019-03-11T14:46:07.637Z,9.80
2019-03-11T14:48:36.961Z,9.70
2019-03-11T14:51:13.813Z,14.58
2019-03-11T14:53:42.935Z,14.00
2019-03-11T14:56:12.237Z,14.80
2019-03-11T14:58:41.538Z,17.15
2019-03-11T15:01:10.442Z,12.70
2019-03-11T15:03:39.168Z,9.68
2019-03-11T15:06:09.100Z,7.95
2019-03-11T15:08:38.110Z,7.37
2019-03-11T15:11:07.104Z,8.58
2019-03-11T15:13:37.326Z,9.80
2019-03-11T15:16:06.401Z,12.55
2019-03-11T15:18:35.623Z,12.20
2019-03-11T15:21:04.614Z,9.98
2019-03-11T15:23:33.486Z,8.40
2019-03-11T15:26:02.614Z,5.67
2019-03-11T15:28:31.913Z,5.50
2019-03-11T15:31:10.130Z,4.22
2019-03-11T15:33:36.717Z,4.20
2019-03-11T15:36:03.204Z,3.92
2019-03-11T15:38:32.497Z,4.10
2019-03-11T15:41:03.045Z,4.97
2019-03-11T15:43:32.098Z,4.87
2019-03-11T15:46:02.245Z,4.90
2019-03-11T15:48:31.539Z,4.78
2019-03-11T15:51:00.477Z,5.42
2019-03-11T15:53:29.538Z,5.17
2019-03-11T15:55:58.929Z,4.50
2019-03-11T15:58:27.783Z,5.03
2019-03-11T16:00:56.799Z,3.92
2019-03-11T16:03:35.746Z,4.35
2019-03-11T16:05:56.629Z,5.10
2019-03-11T16:08:25.627Z,4.87
2019-03-11T16:10:55.086Z,4.12
2019-03-11T16:13:25.147Z,4.70
2019-03-11T16:15:54.138Z,5.20
2019-03-11T16:18:23.132Z,6.08
2019-03-11T16:20:52.124Z,4.35
2019-03-11T16:23:21.447Z,4.90
2019-03-11T16:25:50.418Z,4.22
2019-03-11T16:28:19.486Z,5.28
2019-03-11T16:30:48.320Z,5.95
2019-03-11T16:33:17.300Z,6.47
2019-03-11T16:35:46.712Z,10.93
2019-03-11T16:38:15.712Z,8.33
2019-03-11T16:40:46.542Z,5.12
2019-03-11T16:43:15.661Z,4.58
2019-03-11T16:45:44.834Z,6.10
2019-03-11T16:48:19.786Z,7.12
2019-03-11T16:50:47.736Z,6.50
2019-03-11T16:53:19.209Z,5.40
2019-03-11T16:55:49.825Z,6.10
2019-03-11T17:00:49.048Z,5.58
2019-03-11T17:03:19.018Z,6.15
2019-03-11T17:05:48.454Z,6.40
2019-03-11T17:08:17.756Z,4.97
2019-03-11T17:10:46.992Z,5.30
2019-03-11T17:13:16.012Z,4.97
2019-03-11T17:15:48.679Z,4.55
2019-03-11T17:18:18.029Z,5.45
2019-03-11T17:20:47.350Z,5.42
2019-03-11T17:23:16.241Z,5.53
2019-03-11T17:25:51.494Z,6.00
2019-03-11T17:28:21.687Z,5.60
2019-03-11T17:30:51.046Z,6.83
2019-03-11T17:33:20.287Z,6.87
2019-03-11T17:35:49.582Z,5.53
2019-03-11T17:38:18.883Z,6.50
2019-03-11T17:40:48.185Z,5.30
2019-03-11T17:43:18.370Z,5.12
2019-03-11T17:45:47.480Z,5.12
2019-03-11T17:48:18.667Z,4.72
2019-03-11T17:50:49.685Z,4.20
2019-03-11T17:53:20.199Z,4.62
2019-03-11T17:55:49.633Z,4.65
2019-03-11T17:58:18.548Z,5.12
2019-03-11T18:00:55.608Z,5.22
2019-03-11T18:03:20.211Z,7.85
2019-03-11T18:05:49.955Z,6.58
2019-03-11T18:08:20.290Z,7.50
2019-03-11T18:10:50.449Z,5.30
2019-03-11T18:13:25.492Z,5.10
2019-03-11T18:15:56.109Z,5.70
2019-03-11T18:20:59.760Z,5.12
2019-03-11T18:23:30.723Z,6.97
2019-03-11T18:26:02.015Z,4.60
2019-03-11T18:28:32.848Z,4.33
2019-03-11T18:33:34.283Z,5.15
2019-03-11T18:36:08.152Z,6.33
2019-03-11T18:38:37.428Z,6.95
2019-03-11T18:41:06.410Z,5.25
2019-03-11T18:43:43.009Z,4.33
2019-03-11T18:46:11.484Z,5.12
2019-03-11T18:48:42.640Z,5.17
2019-03-11T18:53:41.254Z,8.45
2019-03-11T18:56:10.539Z,12.20
2019-03-11T18:58:40.133Z,13.32
2019-03-11T19:01:10.346Z,13.80
2019-03-11T19:03:39.649Z,15.10
2019-03-11T19:06:08.622Z,8.95
2019-03-11T19:08:37.978Z,7.60
2019-03-11T19:11:10.338Z,6.12
2019-03-11T19:13:39.638Z,8.95
2019-03-11T19:16:08.713Z,7.08
2019-03-11T19:18:39.153Z,5.67
2019-03-11T19:21:09.712Z,4.70
2019-03-11T19:23:43.654Z,5.80
2019-03-11T19:26:17.519Z,5.62
2019-03-11T19:28:51.870Z,6.17
2019-03-11T19:31:43.359Z,6.65
2019-03-11T19:34:12.749Z,5.97
2019-03-11T19:36:42.633Z,5.62
2019-03-11T19:39:14.052Z,4.33
2019-03-11T19:41:45.981Z,4.45
2019-03-11T19:44:17.026Z,4.50
2019-03-11T19:46:46.324Z,3.90
2019-03-11T19:49:15.945Z,4.78
2019-03-11T19:51:45.879Z,4.90
2019-03-11T19:54:15.158Z,4.03
2019-03-11T19:56:46.875Z,4.50
2019-03-11T19:59:15.848Z,4.60
2019-03-11T20:01:45.752Z,4.47
2019-03-11T20:04:15.082Z,4.80
2019-03-11T20:06:50.889Z,4.92
2019-03-11T20:09:20.344Z,4.58
2019-03-11T20:11:49.436Z,5.55
2019-03-11T20:14:18.786Z,4.20
2019-03-11T20:16:52.664Z,4.03
2019-03-11T20:19:23.179Z,5.05
2019-03-11T20:22:03.373Z,4.40
2019-03-11T20:24:34.098Z,5.03
2019-03-11T20:29:35.159Z,4.15
2019-03-11T20:32:08.471Z,4.50
2019-03-11T20:34:37.716Z,4.85
2019-03-11T20:37:07.028Z,4.70
2019-03-11T20:39:36.319Z,4.80
2019-03-11T20:42:07.366Z,4.33
2019-03-11T20:44:37.398Z,4.45
2019-03-11T20:47:10.056Z,3.90
2019-03-11T20:49:40.649Z,3.83
2019-03-11T20:52:11.451Z,4.67
2019-03-11T20:54:40.764Z,4.60
2019-03-11T20:57:10.987Z,4.70
2019-03-11T20:59:40.244Z,4.80
2019-03-11T21:02:09.544Z,5.08
2019-03-11T21:04:42.440Z,5.55
2019-03-11T21:07:11.870Z,5.75
2019-03-11T21:09:50.056Z,6.50
2019-03-11T21:12:19.469Z,6.35
2019-03-11T21:14:48.642Z,6.28
2019-03-11T21:17:25.693Z,5.62
2019-03-11T21:19:49.736Z,5.80
2019-03-11T21:22:20.556Z,5.30
2019-03-11T21:24:59.537Z,5.10
2019-03-11T21:27:23.449Z,5.17
2019-03-11T21:32:22.386Z,4.45
2019-03-11T21:34:51.459Z,4.58
2019-03-11T21:37:20.719Z,4.83
2019-03-11T21:39:49.682Z,4.58
2019-03-11T21:42:19.199Z,4.25
2019-03-11T21:44:48.557Z,4.20
2019-03-11T21:47:17.856Z,4.60
2019-03-11T21:49:46.886Z,5.05
2019-03-11T21:52:15.888Z,4.78
2019-03-11T21:54:47.460Z,5.05
2019-03-11T21:57:15.738Z,5.10
2019-03-11T21:59:45.289Z,5.25
2019-03-11T22:02:14.576Z,5.47
2019-03-11T22:04:43.560Z,5.05
2019-03-11T22:07:12.861Z,5.28
2019-03-11T22:09:42.162Z,6.37
2019-03-11T22:12:11.160Z,6.17
2019-03-11T22:14:40.456Z,6.17
2019-03-11T22:17:09.808Z,6.15
2019-03-11T22:19:39.058Z,5.42
2019-03-11T22:22:08.356Z,6.37
2019-03-11T22:24:37.348Z,6.05
2019-03-11T22:27:06.352Z,6.40
2019-03-11T22:29:35.642Z,6.70
2019-03-11T22:32:04.634Z,6.17
2019-03-11T22:34:33.632Z,6.28
2019-03-11T22:37:02.930Z,5.90
2019-03-11T22:39:31.926Z,5.85
2019-03-11T22:42:01.222Z,6.70
2019-03-11T22:44:30.186Z,6.35
2019-03-11T22:46:59.515Z,6.28
2019-03-11T22:49:28.821Z,5.95
2019-03-11T22:51:58.117Z,6.45
2019-03-11T22:54:27.118Z,6.53
2019-03-11T22:56:56.410Z,6.47
2019-03-11T22:59:25.369Z,6.60
2019-03-11T23:01:54.704Z,6.83
2019-03-11T23:04:23.807Z,6.15
2019-03-11T23:06:53.000Z,6.17
2019-03-11T23:09:22.298Z,6.25
2019-03-11T23:11:51.260Z,6.37
2019-03-11T23:14:20.590Z,6.30
2019-03-11T23:16:49.593Z,6.25
2019-03-11T23:19:18.886Z,6.87
2019-03-11T23:21:48.186Z,5.97
2019-03-11T23:24:17.486Z,6.45
2019-03-11T23:26:46.785Z,6.08
2019-03-11T23:29:15.889Z,5.80
2019-03-11T23:31:45.082Z,5.67
2019-03-11T23:34:16.223Z,6.10
2019-03-11T23:36:45.217Z,5.87
2019-03-11T23:39:14.516Z,5.75
2019-03-11T23:41:43.510Z,5.97
2019-03-11T23:44:12.809Z,5.62
2019-03-11T23:46:42.110Z,5.95
2019-03-11T23:49:11.411Z,5.00
2019-03-11T23:51:40.711Z,6.00
2019-03-11T23:54:10.011Z,5.30
2019-03-11T23:56:39.010Z,5.85
2019-03-11T23:59:08.000Z,5.58
